Time;durP1;ratioP1;P1;durP2;ratioP2;P2;SDS_P1;SDS_P2;PMS_P1;PMS_P2;Temp;Humidity;BMP_temperature;BMP_pressure;BME280_temperature;BME280_humidity;BME280_pressure;Samples;Min_cycle;Max_cycle;Signal;HPM_P1;HPM_P2
2023/07/24 00:14:10;;;;;;;5.18;4.07;;;;;;;25.23;52.95;100053.00;41588629;28;20047;-76
2023/07/24 00:34:11;;;;;;;6.68;4.07;;;;;;;25.14;53.13;100043.31;41611426;28;20401;-76
2023/07/24 00:54:16;;;;;;;5.88;4.03;;;;;;;24.85;53.81;100014.41;41606870;28;20057;-76
2023/07/24 01:14:24;;;;;;;6.50;3.95;;;;;;;24.79;54.42;100005.25;41613089;28;20053;-75
2023/07/24 01:34:25;;;;;;;5.35;3.83;;;;;;;24.72;54.71;100010.34;41599837;28;20068;-76
2023/07/24 01:54:26;;;;;;;4.72;3.75;;;;;;;24.65;54.93;99989.91;41595432;28;20060;-76
2023/07/24 02:14:26;;;;;;;9.13;3.97;;;;;;;24.62;55.15;99993.69;41588620;28;20745;-76
2023/07/24 02:34:28;;;;;;;7.00;4.15;;;;;;;24.46;55.85;99992.53;41576258;28;20045;-76
2023/07/24 02:54:28;;;;;;;4.80;3.72;;;;;;;24.36;56.39;99991.75;41571615;28;20049;-76
2023/07/24 03:14:29;;;;;;;5.25;4.13;;;;;;;24.40;56.50;99995.78;41579601;28;20107;-74
2023/07/24 03:34:29;;;;;;;5.93;4.25;;;;;;;24.35;56.11;99970.75;41565625;28;20065;-77
2023/07/24 03:54:29;;;;;;;6.13;4.20;;;;;;;24.11;57.35;99980.91;41534878;28;20053;-77
2023/07/24 04:14:30;;;;;;;8.07;4.45;;;;;;;24.42;55.36;99977.91;41556530;28;21016;-78
2023/07/24 04:34:32;;;;;;;8.70;4.97;;;;;;;23.82;57.23;99967.81;41621388;28;20051;-78
2023/07/24 04:54:33;;;;;;;9.18;5.03;;;;;;;23.82;58.13;99970.47;41607684;28;20053;-80
2023/07/24 05:14:34;;;;;;;6.93;5.18;;;;;;;23.94;59.05;99989.66;41611694;28;20567;-81
2023/07/24 05:34:36;;;;;;;6.10;5.07;;;;;;;24.10;59.44;99983.72;41623226;28;20053;-81
2023/07/24 05:54:36;;;;;;;8.55;5.15;;;;;;;24.22;59.62;99976.41;41599180;28;20059;-80
2023/07/24 06:14:37;;;;;;;7.50;5.65;;;;;;;24.29;60.28;99966.88;41620068;28;20457;-79
2023/07/24 06:34:37;;;;;;;12.00;5.93;;;;;;;24.53;59.88;99960.97;41600165;28;20099;-78
2023/07/24 06:54:37;;;;;;;10.45;6.60;;;;;;;24.59;60.52;99956.91;41594014;28;20504;-76
2023/07/24 07:14:38;;;;;;;12.75;6.10;;;;;;;24.85;60.10;99942.91;41539119;28;20466;-74
2023/07/24 07:34:39;;;;;;;10.18;6.82;;;;;;;25.03;59.29;99916.41;41592193;28;20038;-75
2023/07/24 07:54:39;;;;;;;14.43;6.70;;;;;;;25.24;58.86;99898.31;41600986;28;20945;-75
2023/07/24 08:14:40;;;;;;;11.02;5.90;;;;;;;25.49;57.79;99900.28;41572956;28;20080;-75
2023/07/24 08:34:40;;;;;;;8.60;5.85;;;;;;;25.65;57.44;99895.03;41610805;28;20045;-76
2023/07/24 08:54:40;;;;;;;9.15;5.78;;;;;;;25.83;56.08;99875.53;41592536;28;20542;-75
2023/07/24 09:14:41;;;;;;;12.20;5.95;;;;;;;26.05;54.14;99845.72;41585900;28;20041;-78
2023/07/24 09:34:42;;;;;;;11.82;6.10;;;;;;;26.20;52.78;99842.47;41603174;28;20050;-77
2023/07/24 09:54:59;;;;;;;10.45;6.40;;;;;;;26.37;51.43;99804.28;41588495;28;20183;-76
2023/07/24 10:15:00;;;;;;;11.13;6.78;;;;;;;26.56;49.24;99772.25;41587145;28;20048;-76
2023/07/24 10:35:08;;;;;;;11.93;6.70;;;;;;;26.76;48.02;99749.66;41568741;28;20517;-75
2023/07/24 10:55:09;;;;;;;11.27;6.80;;;;;;;26.86;47.76;99732.69;41585588;28;20061;-76
2023/07/24 11:15:10;;;;;;;10.77;6.55;;;;;;;26.94;46.86;99692.78;41565455;28;20060;-76
2023/07/24 11:35:11;;;;;;;11.27;6.72;;;;;;;27.07;46.11;99653.19;41583799;28;20064;-74
2023/07/24 11:55:13;;;;;;;10.02;6.45;;;;;;;27.24;44.72;99605.25;41549461;28;20041;-75
2023/07/24 12:15:15;;;;;;;10.43;6.50;;;;;;;27.43;44.99;99577.41;41558438;28;20076;-76
2023/07/24 12:35:19;;;;;;;11.02;6.25;;;;;;;27.60;44.19;99549.63;41572184;28;20120;-76
2023/07/24 12:55:20;;;;;;;9.77;5.90;;;;;;;27.83;43.03;99518.63;41607440;28;20042;-77
2023/07/24 13:15:20;;;;;;;19.90;5.67;;;;;;;28.35;41.83;99503.56;41638442;28;20072;-82
2023/07/24 13:35:21;;;;;;;12.53;6.20;;;;;;;28.46;42.26;99446.31;41667780;28;20441;-80
2023/07/24 13:55:21;;;;;;;12.02;6.57;;;;;;;28.79;41.84;99424.50;41653125;28;20053;-79
2023/07/24 14:15:22;;;;;;;13.43;7.20;;;;;;;28.80;41.28;99395.00;41638300;28;20129;-84
2023/07/24 14:35:24;;;;;;;12.70;7.70;;;;;;;28.82;40.37;99339.69;41643696;28;20413;-84
2023/07/24 14:55:24;;;;;;;17.23;7.32;;;;;;;29.00;38.12;99301.88;41629456;28;20295;-85
2023/07/24 15:15:27;;;;;;;13.75;6.72;;;;;;;28.99;38.13;99289.56;41632938;28;20045;-85
2023/07/24 15:35:28;;;;;;;12.80;6.63;;;;;;;29.10;39.71;99268.69;41594331;28;20068;-80
2023/07/24 15:55:28;;;;;;;19.40;10.05;;;;;;;29.16;36.91;99271.41;41588078;28;20398;-84
2023/07/24 16:15:29;;;;;;;21.48;8.20;;;;;;;29.22;36.23;99251.94;41644943;28;20041;-79
2023/07/24 16:35:29;;;;;;;;;;;;;;;29.12;37.60;99208.84;41632441;28;20043;-83
2023/07/24 16:55:30;;;;;;;14.27;7.10;;;;;;;29.44;37.05;99214.47;41556284;28;19936;-75
2023/07/24 17:15:31;;;;;;;;;;;;;;;29.19;38.26;99222.22;41541371;28;20123;-74
2023/07/24 17:35:32;;;;;;;12.43;6.13;;;;;;;29.18;39.26;99209.91;41574487;28;20388;-73
2023/07/24 17:55:33;;;;;;;12.60;5.70;;;;;;;29.07;40.00;99196.09;41576720;28;20034;-84
2023/07/24 18:15:34;;;;;;;13.90;5.25;;;;;;;29.00;40.70;99181.97;41596672;28;20567;-92
2023/07/24 18:35:35;;;;;;;11.65;6.18;;;;;;;28.96;41.48;99146.06;41654561;28;20037;-92
2023/07/24 18:55:38;;;;;;;;;;;;;;;28.94;42.14;99171.28;41668656;28;20054;-83
2023/07/24 19:15:40;;;;;;;12.13;5.40;;;;;;;28.82;42.74;99190.50;41644180;28;19924;-83
2023/07/24 19:35:40;;;;;;;10.07;5.32;;;;;;;28.68;43.93;99200.25;41619492;28;20045;-81
2023/07/24 19:55:42;;;;;;;11.63;5.03;;;;;;;28.62;44.52;99193.03;41651635;28;20046;-80
2023/07/24 20:15:44;;;;;;;10.90;5.25;;;;;;;28.53;44.80;99159.63;41640633;28;20041;-82
2023/07/24 20:35:47;;;;;;;10.77;5.60;;;;;;;28.40;45.31;99131.88;41663230;28;20111;-80
2023/07/24 20:55:49;;;;;;;9.57;5.55;;;;;;;28.25;45.59;99126.69;41654822;28;20152;-82
2023/07/24 21:15:51;;;;;;;9.30;4.95;;;;;;;28.11;45.64;99109.84;41656511;28;20056;-81
2023/07/24 21:35:59;;;;;;;10.18;4.93;;;;;;;27.92;45.03;99164.50;41616605;28;20045;-80
2023/07/24 21:56:00;;;;;;;12.93;5.47;;;;;;;27.82;44.00;99206.59;41627104;28;20571;-80
2023/07/24 22:16:01;;;;;;;8.47;5.00;;;;;;;27.68;44.70;99226.09;41603515;28;20052;-81
2023/07/24 22:36:01;;;;;;;9.57;4.85;;;;;;;27.57;44.30;99222.91;41619665;28;20650;-82
2023/07/24 22:56:07;;;;;;;7.93;4.40;;;;;;;27.50;42.93;99139.63;41594913;28;20041;-79
2023/07/24 23:16:15;;;;;;;8.85;4.32;;;;;;;27.31;41.21;99228.78;41604155;28;20041;-82
2023/07/24 23:36:16;;;;;;;10.70;4.57;;;;;;;27.16;42.08;99301.38;41611208;28;20060;-82
2023/07/24 23:56:20;;;;;;;7.05;3.92;;;;;;;27.03;41.98;99377.44;41611971;28;20049;-79
